createdAt,value
2022-10-21T00:02:39.129Z,16.12
2022-10-21T00:07:40.799Z,16.08
2022-10-21T00:12:42.405Z,16.04
2022-10-21T00:17:43.915Z,16.03
2022-10-21T00:22:45.610Z,16.06
2022-10-21T00:27:47.119Z,16.10
2022-10-21T00:32:48.590Z,16.11
2022-10-21T00:37:50.070Z,16.11
2022-10-21T00:42:51.494Z,16.09
2022-10-21T00:48:02.454Z,16.02
2022-10-21T00:53:06.700Z,15.88
2022-10-21T00:58:08.424Z,15.80
2022-10-21T01:03:09.911Z,15.79
2022-10-21T01:08:11.427Z,15.84
2022-10-21T01:13:18.806Z,15.84
2022-10-21T01:18:53.351Z,15.80
2022-10-21T01:24:39.987Z,15.69
2022-10-21T01:29:56.859Z,15.56
2022-10-21T01:35:11.314Z,15.51
2022-10-21T01:40:28.739Z,15.46
2022-10-21T01:45:36.200Z,15.38
2022-10-21T01:50:44.327Z,15.32
2022-10-21T01:55:49.175Z,15.37
2022-10-21T02:00:53.815Z,15.41
2022-10-21T02:05:55.381Z,15.43
2022-10-21T02:11:01.881Z,15.44
2022-10-21T02:16:09.095Z,15.45
2022-10-21T02:21:17.691Z,15.44
2022-10-21T02:26:20.636Z,15.40
2022-10-21T02:31:22.030Z,15.33
2022-10-21T02:36:38.647Z,15.32
2022-10-21T02:41:41.937Z,15.33
2022-10-21T02:46:46.654Z,15.34
2022-10-21T02:51:48.099Z,15.36
2022-10-21T02:56:49.631Z,15.37
2022-10-21T03:01:51.200Z,15.36
2022-10-21T03:06:52.887Z,15.35
2022-10-21T03:11:54.337Z,15.34
2022-10-21T03:16:55.846Z,15.34
2022-10-21T03:21:57.334Z,15.33
2022-10-21T03:26:58.852Z,15.32
2022-10-21T03:32:00.295Z,15.32
2022-10-21T03:37:01.851Z,15.29
2022-10-21T03:42:03.335Z,15.31
2022-10-21T03:47:04.808Z,15.35
2022-10-21T03:52:06.421Z,15.37
2022-10-21T03:57:07.962Z,15.38
2022-10-21T04:02:09.452Z,15.41
2022-10-21T04:07:10.906Z,15.41
2022-10-21T04:12:12.776Z,15.42
2022-10-21T04:17:14.359Z,15.36
2022-10-21T04:22:15.891Z,15.38
2022-10-21T04:27:17.359Z,15.42
2022-10-21T04:32:18.786Z,15.39
2022-10-21T04:37:20.254Z,15.40
2022-10-21T04:42:21.877Z,15.40
2022-10-21T04:47:23.435Z,15.38
2022-10-21T04:52:25.061Z,15.27
2022-10-21T04:57:26.731Z,15.21
2022-10-21T05:02:28.232Z,15.20
2022-10-21T05:07:29.746Z,15.21
2022-10-21T05:12:31.262Z,15.22
2022-10-21T05:17:32.742Z,15.24
2022-10-21T05:22:34.173Z,15.21
2022-10-21T05:27:35.696Z,15.21
2022-10-21T05:32:37.785Z,15.21
2022-10-21T05:37:39.653Z,15.23
2022-10-21T05:42:41.315Z,15.27
2022-10-21T05:47:43.355Z,15.31
2022-10-21T05:52:44.843Z,15.29
2022-10-21T05:57:46.645Z,15.25
2022-10-21T06:02:48.165Z,15.19
2022-10-21T06:07:49.605Z,15.12
2022-10-21T06:12:51.115Z,15.06
2022-10-21T06:17:52.637Z,15.05
2022-10-21T06:22:54.218Z,15.09
2022-10-21T06:27:55.745Z,15.16
2022-10-21T06:32:57.266Z,15.24
2022-10-21T06:37:58.820Z,15.27
2022-10-21T06:43:00.409Z,15.34
2022-10-21T06:48:02.188Z,15.34
2022-10-21T06:53:04.397Z,15.28
2022-10-21T06:58:05.890Z,15.28
2022-10-21T07:03:07.450Z,15.38
2022-10-21T07:08:11.917Z,15.51
2022-10-21T07:13:14.417Z,15.59
2022-10-21T07:18:16.003Z,15.50
2022-10-21T07:23:17.846Z,15.43
2022-10-21T07:28:19.412Z,15.43
2022-10-21T07:33:20.912Z,15.45
2022-10-21T07:38:22.986Z,15.47
2022-10-21T07:43:25.040Z,15.60
2022-10-21T07:48:26.675Z,15.78
2022-10-21T07:53:30.871Z,15.93
2022-10-21T07:58:32.840Z,16.03
2022-10-21T08:03:34.433Z,16.10
2022-10-21T08:08:36.834Z,16.19
2022-10-21T08:13:41.582Z,16.25
2022-10-21T08:18:43.451Z,16.30
2022-10-21T08:23:45.323Z,16.32
2022-10-21T08:28:47.023Z,16.30
2022-10-21T08:33:49.110Z,16.36
2022-10-21T08:38:51.126Z,16.31
2022-10-21T08:43:54.413Z,16.33
2022-10-21T08:49:06.059Z,16.33
2022-10-21T08:54:17.688Z,16.31
2022-10-21T08:59:24.916Z,16.37
2022-10-21T09:04:44.239Z,16.34
2022-10-21T09:10:07.852Z,16.35
2022-10-21T09:15:33.153Z,16.49
2022-10-21T09:20:56.004Z,16.73
2022-10-21T09:26:07.981Z,17.07
2022-10-21T09:31:17.977Z,17.36
2022-10-21T09:36:35.494Z,17.38
2022-10-21T09:41:41.454Z,17.38
2022-10-21T09:46:46.131Z,17.51
2022-10-21T09:51:49.549Z,17.47
2022-10-21T10:16:17.066Z,18.10
2022-10-21T10:21:21.121Z,18.33
2022-10-21T10:26:42.410Z,18.51
2022-10-21T10:31:51.188Z,18.43
2022-10-21T10:37:01.858Z,18.55
2022-10-21T10:42:03.638Z,18.65
2022-10-21T10:47:08.112Z,18.71
2022-10-21T10:52:09.546Z,18.74
2022-10-21T10:57:39.203Z,18.79
2022-10-21T11:03:13.655Z,18.85
2022-10-21T11:08:30.756Z,18.92
2022-10-21T11:13:38.813Z,19.06
2022-10-21T11:18:49.509Z,19.28
2022-10-21T11:24:14.371Z,19.43
2022-10-21T11:29:34.620Z,19.50
2022-10-21T11:34:48.335Z,19.51
2022-10-21T11:40:19.590Z,19.45
2022-10-21T11:45:21.588Z,19.53
2022-10-21T11:50:45.294Z,19.61
2022-10-21T11:56:17.465Z,19.62
2022-10-21T12:01:42.156Z,19.58
2022-10-21T12:07:11.194Z,19.57
2022-10-21T12:12:16.690Z,19.57
2022-10-21T12:17:20.905Z,19.65
2022-10-21T12:22:26.151Z,19.78
2022-10-21T12:27:35.362Z,19.74
2022-10-21T12:33:04.523Z,19.77
2022-10-21T12:38:21.289Z,19.79
2022-10-21T12:43:28.653Z,19.82
2022-10-21T12:48:35.591Z,19.85
2022-10-21T12:54:03.264Z,19.91
2022-10-21T12:59:07.107Z,20.02
2022-10-21T13:04:33.731Z,20.01
2022-10-21T13:09:38.419Z,20.04
2022-10-21T13:14:42.117Z,20.05
2022-10-21T13:19:44.819Z,19.99
2022-10-21T13:24:47.262Z,20.01
2022-10-21T13:35:21.553Z,19.88
2022-10-21T13:40:28.907Z,19.78
2022-10-21T13:45:36.087Z,19.76
2022-10-21T13:50:43.602Z,19.68
2022-10-21T13:56:02.899Z,19.65
2022-10-21T14:01:10.298Z,19.62
2022-10-21T14:06:18.748Z,19.56
2022-10-21T14:11:23.543Z,19.48
2022-10-21T14:16:35.664Z,19.41
2022-10-21T14:21:44.762Z,19.29
2022-10-21T14:26:46.620Z,19.14
2022-10-21T14:31:48.117Z,19.00
2022-10-21T14:37:18.313Z,18.85
2022-10-21T14:42:23.852Z,18.75
2022-10-21T14:47:27.345Z,18.67
2022-10-21T14:52:28.789Z,18.57
2022-10-21T14:57:45.194Z,18.52
2022-10-21T15:02:46.980Z,18.49
2022-10-21T15:07:48.474Z,18.46
2022-10-21T15:12:52.815Z,18.44
2022-10-21T15:18:03.948Z,18.40
2022-10-21T15:23:19.956Z,18.33
2022-10-21T15:28:23.326Z,18.24
2022-10-21T15:33:25.156Z,18.18
2022-10-21T15:38:26.592Z,18.12
2022-10-21T15:43:28.322Z,18.04
2022-10-21T15:48:29.849Z,17.96
2022-10-21T15:53:31.253Z,17.87
2022-10-21T15:58:32.696Z,17.77
2022-10-21T16:03:34.157Z,17.74
2022-10-21T16:08:35.663Z,17.66
2022-10-21T16:13:37.151Z,17.58
2022-10-21T16:18:38.587Z,17.50
2022-10-21T16:23:40.443Z,17.40
2022-10-21T16:28:42.223Z,17.32
2022-10-21T16:33:44.053Z,17.24
2022-10-21T16:38:47.098Z,17.14
2022-10-21T16:43:48.566Z,17.03
2022-10-21T16:48:50.190Z,16.91
2022-10-21T16:53:51.654Z,16.77
2022-10-21T16:58:53.673Z,16.55
2022-10-21T17:03:55.090Z,16.45
2022-10-21T17:08:57.000Z,16.41
2022-10-21T17:13:59.296Z,16.37
2022-10-21T17:19:00.734Z,16.30
2022-10-21T17:24:02.886Z,16.22
2022-10-21T17:29:04.330Z,16.16
2022-10-21T17:34:07.585Z,16.06
2022-10-21T17:39:09.119Z,15.99
2022-10-21T17:44:13.675Z,15.90
2022-10-21T17:49:15.410Z,15.82
2022-10-21T17:54:21.445Z,15.73
2022-10-21T17:59:26.748Z,15.66
2022-10-21T18:04:28.671Z,15.52
2022-10-21T18:09:30.182Z,15.45
2022-10-21T18:14:31.609Z,15.39
2022-10-21T18:19:33.924Z,15.32
2022-10-21T18:24:35.350Z,15.27
2022-10-21T18:29:36.915Z,15.19
2022-10-21T18:34:38.322Z,15.08
2022-10-21T18:39:39.802Z,14.99
2022-10-21T18:44:41.560Z,14.93
2022-10-21T18:49:43.032Z,14.89
2022-10-21T18:54:44.408Z,14.90
2022-10-21T18:59:45.879Z,14.90
2022-10-21T19:04:48.252Z,14.90
2022-10-21T19:09:49.923Z,14.93
2022-10-21T19:14:51.396Z,14.95
2022-10-21T19:19:52.999Z,14.92
2022-10-21T19:24:54.440Z,14.89
2022-10-21T19:29:55.893Z,14.91
2022-10-21T19:34:57.361Z,14.81
2022-10-21T19:39:58.899Z,14.72
2022-10-21T19:45:00.355Z,14.63
2022-10-21T19:50:02.232Z,14.64
2022-10-21T19:55:04.067Z,14.67
2022-10-21T20:00:05.920Z,14.69
2022-10-21T20:05:08.339Z,14.73
2022-10-21T20:10:09.907Z,14.77
2022-10-21T20:15:11.352Z,14.82
2022-10-21T20:20:12.806Z,14.82
2022-10-21T20:25:14.204Z,14.83
2022-10-21T20:30:15.719Z,14.85
2022-10-21T20:35:17.142Z,14.83
2022-10-21T20:40:20.365Z,14.85
2022-10-21T20:45:21.912Z,14.89
2022-10-21T20:50:23.356Z,14.89
2022-10-21T20:55:24.825Z,14.89
2022-10-21T21:00:26.292Z,14.88
2022-10-21T21:05:27.779Z,14.85
2022-10-21T21:10:30.225Z,14.85
2022-10-21T21:15:31.700Z,14.80
2022-10-21T21:20:33.126Z,15.15
2022-10-21T21:25:34.549Z,15.65
2022-10-21T21:30:35.965Z,15.87
2022-10-21T21:35:37.962Z,16.25
2022-10-21T21:40:39.470Z,16.73
2022-10-21T21:45:44.100Z,16.84
2022-10-21T21:50:46.189Z,16.41
2022-10-21T21:55:47.717Z,16.42
2022-10-21T22:00:49.121Z,16.64
2022-10-21T22:05:50.580Z,16.52
2022-10-21T22:10:52.026Z,16.41
2022-10-21T22:15:53.633Z,16.09
2022-10-21T22:20:58.462Z,15.98
2022-10-21T22:26:00.078Z,16.02
2022-10-21T22:31:13.455Z,16.02
2022-10-21T22:36:16.667Z,16.00
2022-10-21T22:41:18.294Z,15.83
2022-10-21T22:46:35.271Z,15.73
2022-10-21T22:51:36.761Z,15.64
2022-10-21T22:56:38.690Z,15.57
2022-10-21T23:01:40.107Z,15.57
2022-10-21T23:06:41.645Z,15.56
2022-10-21T23:11:43.150Z,15.53
2022-10-21T23:16:44.599Z,15.57
2022-10-21T23:21:45.987Z,15.57
2022-10-21T23:26:47.657Z,15.53
2022-10-21T23:31:49.097Z,15.54
2022-10-21T23:36:50.544Z,15.52
2022-10-21T23:41:51.975Z,15.47
2022-10-21T23:46:53.383Z,15.43
2022-10-21T23:51:54.876Z,15.38
2022-10-21T23:56:56.326Z,15.34
